createdAt,value
2018-02-09T00:00:39.859Z,4.00
2018-02-09T00:03:08.158Z,4.10
2018-02-09T00:05:35.724Z,4.10
2018-02-09T00:08:03.302Z,4.10
2018-02-09T00:10:30.861Z,3.90
2018-02-09T00:12:58.420Z,3.90
2018-02-09T00:15:25.998Z,4.10
2018-02-09T00:17:53.579Z,3.90
2018-02-09T00:20:21.116Z,4.00
2018-02-09T00:22:53.177Z,4.20
2018-02-09T00:25:20.713Z,4.10
2018-02-09T00:27:48.336Z,4.00
2018-02-09T00:30:15.905Z,4.00
2018-02-09T00:32:43.447Z,4.00
2018-02-09T00:35:11.069Z,3.90
2018-02-09T00:37:38.690Z,4.00
2018-02-09T00:40:07.029Z,4.20
2018-02-09T00:42:34.605Z,4.20
2018-02-09T00:45:02.276Z,4.20
2018-02-09T00:47:30.577Z,4.10
2018-02-09T00:49:58.122Z,4.10
2018-02-09T00:52:26.581Z,4.20
2018-02-09T00:54:54.111Z,4.10
2018-02-09T00:57:21.679Z,4.20
2018-02-09T00:59:49.219Z,4.40
2018-02-09T01:02:16.795Z,4.40
2018-02-09T01:04:44.362Z,4.20
2018-02-09T01:07:11.916Z,4.30
2018-02-09T01:09:40.305Z,4.30
2018-02-09T01:12:07.852Z,4.40
2018-02-09T01:14:35.421Z,4.40
2018-02-09T01:17:03.010Z,4.40
2018-02-09T01:19:30.890Z,4.40
2018-02-09T01:21:58.508Z,4.40
2018-02-09T01:24:26.047Z,4.30
2018-02-09T01:26:53.655Z,4.30
2018-02-09T01:29:21.998Z,4.30
2018-02-09T01:31:49.562Z,4.30
2018-02-09T01:34:17.126Z,4.20
2018-02-09T01:36:44.685Z,4.30
2018-02-09T01:39:12.602Z,4.40
2018-02-09T01:41:40.197Z,4.40
2018-02-09T01:44:07.821Z,4.40
2018-02-09T01:46:35.373Z,4.40
2018-02-09T01:49:02.948Z,4.30
2018-02-09T01:51:30.535Z,4.40
2018-02-09T01:53:58.065Z,4.40
2018-02-09T01:56:25.648Z,4.40
2018-02-09T01:58:53.185Z,4.50
2018-02-09T02:01:20.778Z,4.40
2018-02-09T02:03:48.354Z,4.40
2018-02-09T02:06:15.918Z,4.40
2018-02-09T02:08:43.491Z,4.40
2018-02-09T02:11:11.089Z,4.40
2018-02-09T02:13:38.652Z,4.40
2018-02-09T02:16:06.264Z,4.40
2018-02-09T02:18:33.832Z,4.40
2018-02-09T02:21:01.405Z,4.40
2018-02-09T02:23:29.732Z,4.40
2018-02-09T02:25:57.289Z,4.50
2018-02-09T02:28:24.865Z,4.40
2018-02-09T02:30:52.411Z,4.40
2018-02-09T02:33:19.989Z,4.50
2018-02-09T02:35:47.631Z,4.50
2018-02-09T02:38:15.971Z,4.50
2018-02-09T02:40:43.518Z,4.40
2018-02-09T02:43:11.109Z,4.50
2018-02-09T02:45:38.668Z,4.50
2018-02-09T02:48:06.199Z,4.50
2018-02-09T02:50:34.568Z,4.50
2018-02-09T02:53:02.113Z,4.50
2018-02-09T02:58:01.669Z,4.50
2018-02-09T03:00:29.233Z,4.60
2018-02-09T03:02:56.761Z,4.50
2018-02-09T03:05:24.354Z,4.50
2018-02-09T03:07:51.989Z,4.50
2018-02-09T03:10:19.556Z,4.50
2018-02-09T03:12:47.094Z,4.50
2018-02-09T03:15:14.660Z,4.60
2018-02-09T03:17:42.217Z,4.60
2018-02-09T03:20:09.797Z,4.50
2018-02-09T03:22:37.392Z,4.60
2018-02-09T03:25:04.932Z,4.60
2018-02-09T03:27:32.496Z,4.60
2018-02-09T03:30:00.058Z,4.50
2018-02-09T03:32:28.401Z,4.60
2018-02-09T03:34:55.956Z,4.60
2018-02-09T03:37:23.542Z,4.70
2018-02-09T03:39:51.111Z,4.70
2018-02-09T03:42:19.637Z,4.70
2018-02-09T03:44:47.212Z,4.70
2018-02-09T03:47:14.741Z,4.70
2018-02-09T03:49:42.298Z,4.60
2018-02-09T03:52:09.833Z,4.70
2018-02-09T03:54:37.477Z,4.70
2018-02-09T03:57:05.028Z,4.70
2018-02-09T03:59:32.575Z,4.70
2018-02-09T04:02:00.181Z,4.70
2018-02-09T04:04:27.704Z,4.70
2018-02-09T04:06:55.277Z,4.70
2018-02-09T04:09:23.640Z,4.90
2018-02-09T04:11:51.189Z,4.90
2018-02-09T04:14:18.764Z,4.80
2018-02-09T04:16:46.314Z,4.80
2018-02-09T04:19:13.920Z,4.80
2018-02-09T04:21:41.500Z,4.80
2018-02-09T04:24:09.060Z,4.90
2018-02-09T04:26:36.590Z,4.80
2018-02-09T04:29:04.164Z,4.80
2018-02-09T04:31:31.692Z,4.80
2018-02-09T04:33:59.296Z,4.90
2018-02-09T04:36:26.870Z,4.90
2018-02-09T04:38:54.426Z,4.80
2018-02-09T04:41:21.962Z,4.90
2018-02-09T04:43:49.520Z,4.90
2018-02-09T04:46:17.084Z,4.80
2018-02-09T04:48:44.626Z,4.80
2018-02-09T04:51:12.524Z,4.80
2018-02-09T04:53:40.073Z,4.80
2018-02-09T04:56:07.651Z,4.80
2018-02-09T04:58:35.222Z,4.80
2018-02-09T05:01:02.866Z,4.80
2018-02-09T05:03:30.484Z,4.70
2018-02-09T05:05:58.811Z,4.70
2018-02-09T05:08:26.387Z,4.70
2018-02-09T05:10:53.989Z,4.80
2018-02-09T05:13:21.527Z,4.80
2018-02-09T05:15:49.091Z,4.80
2018-02-09T05:18:16.810Z,4.90
2018-02-09T05:20:44.375Z,4.90
2018-02-09T05:23:11.924Z,4.90
2018-02-09T05:25:39.495Z,5.00
2018-02-09T05:28:07.100Z,5.00
2018-02-09T05:30:34.651Z,5.00
2018-02-09T05:33:03.007Z,5.00
2018-02-09T05:35:30.548Z,4.90
2018-02-09T05:37:58.116Z,5.10
2018-02-09T05:40:25.716Z,5.10
2018-02-09T05:42:53.241Z,5.10
2018-02-09T05:45:20.895Z,5.10
2018-02-09T05:47:48.436Z,5.00
2018-02-09T05:50:16.017Z,5.10
2018-02-09T05:52:43.537Z,5.10
2018-02-09T05:55:11.102Z,5.10
2018-02-09T05:57:39.436Z,5.20
2018-02-09T06:00:06.977Z,5.10
2018-02-09T06:02:34.545Z,5.10
2018-02-09T06:05:02.150Z,5.10
2018-02-09T06:07:30.506Z,5.10
2018-02-09T06:09:58.045Z,5.10
2018-02-09T06:12:25.678Z,5.10
2018-02-09T06:14:53.249Z,5.10
2018-02-09T06:17:20.811Z,5.10
2018-02-09T06:19:48.491Z,5.00
2018-02-09T06:22:16.020Z,5.00
2018-02-09T06:24:43.586Z,5.00
2018-02-09T06:27:11.103Z,5.00
2018-02-09T06:29:39.722Z,5.10
2018-02-09T06:32:07.328Z,5.10
2018-02-09T06:34:34.914Z,5.10
2018-02-09T06:37:02.460Z,5.10
2018-02-09T06:39:30.850Z,5.10
2018-02-09T06:41:59.298Z,5.10
2018-02-09T06:44:26.840Z,5.10
2018-02-09T06:46:54.414Z,5.10
2018-02-09T06:49:22.063Z,5.20
2018-02-09T06:51:49.638Z,5.20
2018-02-09T06:54:17.184Z,5.20
2018-02-09T06:56:44.749Z,5.20
2018-02-09T06:59:12.375Z,5.20
2018-02-09T07:01:40.117Z,5.20
2018-02-09T07:04:07.749Z,5.30
2018-02-09T07:06:35.349Z,5.20
2018-02-09T07:09:03.763Z,5.20
2018-02-09T07:11:31.311Z,5.20
2018-02-09T07:13:58.895Z,5.30
2018-02-09T07:16:26.464Z,5.30
2018-02-09T07:18:54.018Z,5.20
2018-02-09T07:21:21.582Z,5.20
2018-02-09T07:23:49.476Z,5.20
2018-02-09T07:26:17.250Z,5.40
2018-02-09T07:28:45.679Z,5.50
2018-02-09T07:31:13.330Z,5.50
2018-02-09T07:33:40.966Z,5.40
2018-02-09T07:36:08.578Z,5.40
2018-02-09T07:38:36.128Z,5.40
2018-02-09T07:41:03.692Z,5.50
2018-02-09T07:43:31.361Z,5.40
2018-02-09T07:45:59.003Z,5.40
2018-02-09T07:48:26.735Z,5.50
2018-02-09T07:50:54.426Z,5.50
2018-02-09T07:53:22.112Z,5.50
2018-02-09T07:55:49.771Z,5.40
2018-02-09T07:58:17.433Z,5.50
2018-02-09T08:00:44.975Z,5.40
2018-02-09T08:03:12.551Z,5.50
2018-02-09T08:05:40.128Z,5.50
2018-02-09T08:08:07.768Z,5.40
2018-02-09T08:10:35.381Z,5.40
2018-02-09T08:13:03.760Z,5.30
2018-02-09T08:15:31.529Z,5.30
2018-02-09T08:17:59.178Z,5.20
2018-02-09T08:20:26.809Z,5.10
2018-02-09T08:22:54.394Z,5.10
2018-02-09T08:25:22.026Z,5.00
2018-02-09T08:27:49.592Z,5.10
2018-02-09T08:30:17.913Z,5.30
2018-02-09T08:32:45.475Z,5.30
2018-02-09T08:35:13.188Z,5.40
2018-02-09T08:37:40.757Z,5.40
2018-02-09T08:40:08.335Z,5.30
2018-02-09T08:42:36.022Z,5.20
2018-02-09T08:45:03.723Z,5.20
2018-02-09T08:47:31.600Z,5.20
2018-02-09T08:49:59.150Z,5.20
2018-02-09T08:52:26.780Z,5.20
2018-02-09T08:54:54.387Z,5.30
2018-02-09T08:57:22.038Z,5.30
2018-02-09T08:59:49.644Z,5.30
2018-02-09T09:02:17.340Z,5.30
2018-02-09T09:04:44.971Z,5.20
2018-02-09T09:07:12.548Z,5.10
2018-02-09T09:09:41.190Z,5.20
2018-02-09T09:12:08.804Z,5.20
2018-02-09T09:14:36.393Z,5.30
2018-02-09T09:17:08.990Z,5.30
2018-02-09T09:19:36.535Z,5.30
2018-02-09T09:22:04.168Z,5.30
2018-02-09T09:24:31.754Z,5.40
2018-02-09T09:26:59.416Z,5.40
2018-02-09T09:29:26.974Z,5.40
2018-02-09T09:31:54.610Z,5.30
2018-02-09T09:34:22.217Z,5.40
2018-02-09T09:36:49.879Z,5.40
2018-02-09T09:39:17.416Z,5.40
2018-02-09T09:41:44.980Z,5.30
2018-02-09T09:44:12.539Z,5.30
2018-02-09T09:46:40.204Z,5.30
2018-02-09T09:49:07.767Z,5.30
2018-02-09T09:51:35.343Z,5.40
2018-02-09T09:54:02.886Z,5.30
2018-02-09T09:56:30.570Z,5.30
2018-02-09T09:58:58.926Z,5.10
2018-02-09T10:01:31.406Z,5.10
2018-02-09T10:03:59.785Z,5.20
2018-02-09T10:06:27.368Z,5.10
2018-02-09T10:08:55.733Z,5.20
2018-02-09T10:11:23.336Z,5.20
2018-02-09T10:13:51.229Z,5.20
2018-02-09T10:16:18.962Z,5.20
2018-02-09T10:18:46.590Z,5.30
2018-02-09T10:21:14.234Z,5.40
2018-02-09T10:23:41.798Z,5.30
2018-02-09T10:26:09.437Z,5.30
2018-02-09T10:28:37.069Z,5.20
2018-02-09T10:31:04.727Z,5.30
2018-02-09T10:33:32.305Z,5.40
2018-02-09T10:35:59.933Z,5.50
2018-02-09T10:38:28.255Z,5.60
2018-02-09T10:40:55.850Z,5.60
2018-02-09T10:43:23.441Z,5.70
2018-02-09T10:45:51.034Z,5.70
2018-02-09T10:48:18.573Z,5.60
2018-02-09T10:50:46.279Z,5.70
2018-02-09T10:53:13.854Z,5.70
2018-02-09T10:55:41.433Z,5.70
2018-02-09T10:58:09.830Z,5.70
2018-02-09T11:00:43.103Z,5.60
2018-02-09T11:03:11.489Z,5.60
2018-02-09T11:05:39.852Z,5.60
2018-02-09T11:08:07.477Z,5.60
2018-02-09T11:10:35.204Z,5.70
2018-02-09T11:13:08.387Z,5.60
2018-02-09T11:15:35.997Z,5.70
2018-02-09T11:18:03.539Z,5.80
2018-02-09T11:20:31.118Z,5.80
2018-02-09T11:22:58.940Z,5.90
2018-02-09T11:25:26.496Z,6.10
2018-02-09T11:27:54.128Z,6.20
2018-02-09T11:30:22.485Z,6.10
2018-02-09T11:32:50.106Z,6.00
2018-02-09T11:35:17.727Z,6.00
2018-02-09T11:37:45.826Z,6.10
2018-02-09T11:40:13.476Z,6.10
2018-02-09T11:42:41.125Z,6.10
2018-02-09T11:45:08.748Z,6.10
2018-02-09T11:47:36.325Z,6.00
2018-02-09T11:50:03.965Z,5.90
2018-02-09T11:52:31.558Z,5.80
2018-02-09T11:54:59.152Z,5.80
2018-02-09T11:57:27.470Z,6.10
2018-02-09T11:59:55.042Z,6.10
2018-02-09T12:02:22.643Z,6.10
2018-02-09T12:04:50.344Z,6.20
2018-02-09T12:07:17.925Z,6.20
2018-02-09T12:09:45.512Z,6.20
2018-02-09T12:12:13.105Z,6.10
2018-02-09T12:14:40.685Z,6.10
2018-02-09T12:17:08.255Z,5.90
2018-02-09T12:19:35.833Z,5.80
2018-02-09T12:22:03.445Z,5.80
2018-02-09T12:24:33.083Z,5.90
2018-02-09T12:27:04.172Z,6.10
2018-02-09T12:29:31.897Z,6.10
2018-02-09T12:32:01.180Z,6.10
2018-02-09T12:34:28.789Z,6.30
2018-02-09T12:36:56.379Z,6.30
2018-02-09T12:39:24.759Z,6.30
2018-02-09T12:41:52.355Z,6.30
2018-02-09T12:44:19.905Z,6.20
2018-02-09T12:46:47.484Z,6.10
2018-02-09T12:49:15.053Z,6.20
2018-02-09T12:51:42.706Z,6.20
2018-02-09T12:54:10.307Z,6.20
2018-02-09T12:56:37.881Z,6.10
2018-02-09T12:59:06.288Z,6.30
2018-02-09T13:01:33.850Z,6.20
2018-02-09T13:04:01.442Z,6.20
2018-02-09T13:06:29.055Z,6.30
2018-02-09T13:08:56.628Z,6.30
2018-02-09T13:11:24.220Z,6.30
2018-02-09T13:13:51.802Z,6.30
2018-02-09T13:16:19.617Z,6.30
2018-02-09T13:18:49.994Z,6.30
2018-02-09T13:21:17.564Z,6.40
2018-02-09T13:23:56.866Z,6.40
2018-02-09T13:26:24.448Z,6.40
2018-02-09T13:28:58.938Z,6.30
2018-02-09T13:31:26.494Z,6.40
2018-02-09T13:33:54.100Z,6.50
2018-02-09T13:36:34.206Z,6.40
2018-02-09T13:39:01.814Z,6.40
2018-02-09T13:41:29.398Z,6.40
2018-02-09T13:43:57.063Z,6.40
2018-02-09T13:46:24.679Z,6.40
2018-02-09T13:48:52.287Z,6.30
2018-02-09T13:51:19.876Z,6.40
2018-02-09T13:53:47.439Z,6.40
2018-02-09T13:56:15.186Z,6.30
2018-02-09T13:58:42.752Z,6.30
2018-02-09T14:01:13.006Z,6.40
2018-02-09T14:03:40.597Z,6.40
2018-02-09T14:06:08.180Z,6.30
2018-02-09T14:08:35.772Z,6.40
2018-02-09T14:11:03.329Z,6.30
2018-02-09T14:13:30.909Z,6.20
2018-02-09T14:15:58.530Z,6.30
2018-02-09T14:18:26.116Z,6.30
2018-02-09T14:20:53.632Z,6.30
2018-02-09T14:23:21.270Z,6.40
2018-02-09T14:25:48.908Z,6.40
2018-02-09T14:28:16.537Z,6.40
2018-02-09T14:30:44.173Z,6.40
2018-02-09T14:33:11.737Z,6.30
2018-02-09T14:35:39.385Z,6.30
2018-02-09T14:38:07.034Z,6.40
2018-02-09T14:40:35.444Z,6.50
2018-02-09T14:43:03.005Z,6.50
2018-02-09T14:45:30.665Z,6.50
2018-02-09T14:47:58.364Z,6.60
2018-02-09T14:50:26.013Z,6.60
2018-02-09T14:52:53.917Z,6.40
2018-02-09T14:55:21.809Z,6.40
2018-02-09T14:57:49.370Z,6.40
2018-02-09T15:00:17.758Z,6.40
2018-02-09T15:02:46.086Z,6.40
2018-02-09T15:05:13.722Z,6.40
2018-02-09T15:07:41.272Z,6.40
2018-02-09T15:10:08.832Z,6.40
2018-02-09T15:12:36.368Z,6.50
2018-02-09T15:15:03.921Z,6.50
2018-02-09T15:17:31.528Z,6.50
2018-02-09T15:19:59.067Z,6.50
2018-02-09T15:22:26.629Z,6.50
2018-02-09T15:24:54.230Z,6.50
2018-02-09T15:27:21.836Z,6.40
2018-02-09T15:29:49.382Z,6.30
2018-02-09T15:32:17.768Z,6.40
2018-02-09T15:34:45.345Z,6.30
2018-02-09T15:37:12.916Z,6.40
2018-02-09T15:39:40.449Z,6.40
2018-02-09T15:42:08.017Z,6.50
2018-02-09T15:44:35.596Z,6.50
2018-02-09T15:47:03.192Z,6.40
2018-02-09T15:49:30.734Z,6.40
2018-02-09T15:51:58.294Z,6.50
2018-02-09T15:54:26.590Z,6.40
2018-02-09T15:56:54.183Z,6.40
2018-02-09T15:59:22.558Z,6.50
2018-02-09T16:01:51.066Z,6.50
2018-02-09T16:04:18.721Z,6.40
2018-02-09T16:06:46.311Z,6.50
2018-02-09T16:09:13.854Z,6.50
2018-02-09T16:11:41.420Z,6.50
2018-02-09T16:14:09.021Z,6.50
2018-02-09T16:16:36.583Z,6.50
2018-02-09T16:19:04.118Z,6.50
2018-02-09T16:21:31.726Z,6.50
2018-02-09T16:23:59.329Z,6.40
2018-02-09T16:26:26.912Z,6.40
2018-02-09T16:28:54.542Z,6.40
2018-02-09T16:31:22.133Z,6.40
2018-02-09T16:33:49.722Z,6.50
2018-02-09T16:36:17.605Z,6.50
2018-02-09T16:38:45.188Z,6.60
2018-02-09T16:41:12.745Z,6.50
2018-02-09T16:43:40.341Z,6.60
2018-02-09T16:46:07.928Z,6.50
2018-02-09T16:48:36.279Z,6.50
2018-02-09T16:51:03.857Z,6.50
2018-02-09T16:53:31.468Z,6.60
2018-02-09T16:55:58.983Z,6.60
2018-02-09T16:58:27.389Z,6.50
2018-02-09T17:00:54.918Z,6.50
2018-02-09T17:03:22.541Z,6.60
2018-02-09T17:05:50.127Z,6.60
2018-02-09T17:08:17.668Z,6.60
2018-02-09T17:10:45.230Z,6.70
2018-02-09T17:13:12.814Z,6.70
2018-02-09T17:15:40.489Z,6.70
2018-02-09T17:18:08.828Z,6.60
2018-02-09T17:20:36.374Z,6.60
2018-02-09T17:23:03.923Z,6.70
2018-02-09T17:25:31.485Z,6.70
2018-02-09T17:27:59.031Z,6.70
2018-02-09T17:30:26.607Z,6.70
2018-02-09T17:32:54.127Z,6.70
2018-02-09T17:35:21.722Z,6.60
2018-02-09T17:37:49.388Z,6.60
2018-02-09T17:40:16.960Z,6.50
2018-02-09T17:42:44.539Z,6.50
2018-02-09T17:45:12.124Z,6.50
2018-02-09T17:47:40.458Z,6.60
2018-02-09T17:50:07.998Z,6.60
2018-02-09T17:52:36.829Z,6.60
2018-02-09T17:55:04.353Z,6.70
2018-02-09T17:57:33.057Z,6.60
2018-02-09T18:00:00.705Z,6.70
2018-02-09T18:02:28.295Z,6.60
2018-02-09T18:04:55.876Z,6.70
2018-02-09T18:07:23.435Z,6.60
2018-02-09T18:09:51.197Z,6.60
2018-02-09T18:12:18.766Z,6.60
2018-02-09T18:14:47.101Z,6.60
2018-02-09T18:17:14.684Z,6.60
2018-02-09T18:19:42.271Z,6.60
2018-02-09T18:22:09.839Z,6.60
2018-02-09T18:24:37.400Z,6.60
2018-02-09T18:27:05.299Z,6.60
2018-02-09T18:29:33.114Z,6.50
2018-02-09T18:32:01.430Z,6.50
2018-02-09T18:34:29.010Z,6.50
2018-02-09T18:36:56.569Z,6.50
2018-02-09T18:39:24.125Z,6.50
2018-02-09T18:41:51.670Z,6.50
2018-02-09T18:44:19.250Z,6.50
2018-02-09T18:46:47.166Z,6.50
2018-02-09T18:49:14.725Z,6.50
2018-02-09T18:51:42.288Z,6.60
2018-02-09T18:54:10.191Z,6.60
2018-02-09T18:56:37.750Z,6.50
2018-02-09T18:59:05.330Z,6.60
2018-02-09T19:01:32.949Z,6.60
2018-02-09T19:04:00.530Z,6.60
2018-02-09T19:06:28.091Z,6.60
2018-02-09T19:08:55.666Z,6.60
2018-02-09T19:11:23.190Z,6.70
2018-02-09T19:13:50.795Z,6.60
2018-02-09T19:16:18.346Z,6.70
2018-02-09T19:18:45.914Z,6.70
2018-02-09T19:21:13.503Z,6.60
2018-02-09T19:23:41.108Z,6.60
2018-02-09T19:26:08.677Z,6.70
2018-02-09T19:28:36.608Z,6.70
2018-02-09T19:31:04.169Z,6.60
2018-02-09T19:33:32.499Z,6.50
2018-02-09T19:36:00.106Z,6.40
2018-02-09T19:38:27.748Z,6.40
2018-02-09T19:40:55.309Z,6.40
2018-02-09T19:43:22.857Z,6.40
2018-02-09T19:45:50.486Z,6.40
2018-02-09T19:48:18.047Z,6.50
2018-02-09T19:50:45.617Z,6.60
2018-02-09T19:53:13.181Z,6.50
2018-02-09T19:55:40.794Z,6.50
2018-02-09T19:58:08.402Z,6.50
2018-02-09T20:00:35.966Z,6.50
2018-02-09T20:03:03.485Z,6.50
2018-02-09T20:05:31.068Z,6.50
2018-02-09T20:07:58.628Z,6.50
2018-02-09T20:10:26.217Z,6.50
2018-02-09T20:12:53.761Z,6.40
2018-02-09T20:15:21.323Z,6.40
2018-02-09T20:17:48.862Z,6.50
2018-02-09T20:20:16.394Z,6.40
2018-02-09T20:22:43.961Z,6.40
2018-02-09T20:25:11.496Z,6.40
2018-02-09T20:27:39.067Z,6.50
2018-02-09T20:30:07.401Z,6.60
2018-02-09T20:32:35.051Z,6.60
2018-02-09T20:35:02.616Z,6.60
2018-02-09T20:37:30.197Z,6.60
2018-02-09T20:39:57.783Z,6.60
2018-02-09T20:42:25.349Z,6.60
2018-02-09T20:44:52.951Z,6.60
2018-02-09T20:47:20.490Z,6.50
2018-02-09T20:49:48.020Z,6.50
2018-02-09T20:52:15.638Z,6.40
2018-02-09T20:54:43.218Z,6.30
2018-02-09T20:57:10.797Z,6.30
2018-02-09T20:59:38.377Z,6.30
2018-02-09T21:02:05.987Z,6.30
2018-02-09T21:04:33.547Z,6.30
2018-02-09T21:07:01.133Z,6.30
2018-02-09T21:09:28.736Z,6.30
2018-02-09T21:11:56.312Z,6.30
2018-02-09T21:14:23.859Z,6.40
2018-02-09T21:16:51.451Z,6.40
2018-02-09T21:19:19.013Z,6.40
2018-02-09T21:21:46.564Z,6.40
2018-02-09T21:24:14.096Z,6.50
2018-02-09T21:26:41.695Z,6.50
2018-02-09T21:29:09.257Z,6.50
2018-02-09T21:31:36.864Z,6.40
2018-02-09T21:34:04.422Z,6.40
2018-02-09T21:36:31.979Z,6.50
2018-02-09T21:38:59.578Z,6.50
2018-02-09T21:41:27.301Z,6.50
2018-02-09T21:43:54.865Z,6.50
2018-02-09T21:46:22.444Z,6.50
2018-02-09T21:48:50.023Z,6.40
2018-02-09T21:51:17.593Z,6.50
2018-02-09T21:53:45.162Z,6.40
2018-02-09T21:56:12.698Z,6.30
2018-02-09T21:58:40.276Z,6.40
2018-02-09T22:01:07.828Z,6.40
2018-02-09T22:03:35.458Z,6.40
2018-02-09T22:06:03.052Z,6.40
2018-02-09T22:08:30.608Z,6.30
2018-02-09T22:10:58.348Z,6.30
2018-02-09T22:13:25.894Z,6.40
2018-02-09T22:15:53.695Z,6.50
2018-02-09T22:18:21.259Z,6.50
2018-02-09T22:20:48.839Z,6.60
2018-02-09T22:23:16.426Z,6.60
2018-02-09T22:25:45.040Z,6.50
2018-02-09T22:28:12.630Z,6.50
2018-02-09T22:30:40.977Z,6.50
2018-02-09T22:33:08.567Z,6.50
2018-02-09T22:35:36.197Z,6.50
2018-02-09T22:38:03.786Z,6.50
2018-02-09T22:40:31.380Z,6.40
2018-02-09T22:42:58.934Z,6.40
2018-02-09T22:45:26.541Z,6.40
2018-02-09T22:47:54.163Z,6.40
2018-02-09T22:50:21.703Z,6.40
2018-02-09T22:52:49.273Z,6.50
2018-02-09T22:55:16.945Z,6.50
2018-02-09T22:57:45.400Z,6.60
2018-02-09T23:00:12.949Z,6.60
2018-02-09T23:02:40.510Z,6.50
2018-02-09T23:05:08.090Z,6.40
2018-02-09T23:07:35.650Z,6.50
2018-02-09T23:10:03.210Z,6.40
2018-02-09T23:12:30.816Z,6.40
2018-02-09T23:14:59.054Z,6.40
2018-02-09T23:17:26.586Z,6.40
2018-02-09T23:19:54.199Z,6.30
2018-02-09T23:22:21.795Z,6.30
2018-02-09T23:24:49.352Z,6.20
2018-02-09T23:27:16.933Z,6.10
2018-02-09T23:29:44.474Z,6.10
2018-02-09T23:32:12.049Z,6.10
2018-02-09T23:34:39.637Z,6.30
2018-02-09T23:37:07.205Z,6.30
2018-02-09T23:39:34.779Z,6.30
2018-02-09T23:42:02.336Z,6.20
2018-02-09T23:44:29.905Z,6.20
2018-02-09T23:46:57.476Z,6.10
2018-02-09T23:49:25.036Z,6.00
2018-02-09T23:51:53.369Z,5.90
2018-02-09T23:54:20.896Z,5.90
2018-02-09T23:56:48.449Z,5.90
2018-02-09T23:59:16.017Z,5.90
